Adapazari, Turkey

6:32 AM EET on February 11, 2016 (GMT +0200)
Yenisehir Air Base | | Change Station
CLOSE
Current Station
Airport
Location: Bursa / Yenisehir,
Elevation: 764 ft
Nearby Weather Stations

Elev 764 ft 40.26 °N, 29.56 °E | Updated 12 minutes ago

Mostly Cloudy
Mostly Cloudy
55 °F
Feels Like 55 °F
N
20
Wind Variable Wind from SSE

Today
High -- | Low -- °F
--% Chance of Precip.
Yesterday
High -- | Low -- °F
Precip. -- in
Pressure 29.74 in
Visibility 6.2 miles
Clouds Scattered Clouds 3500 ft
Mostly Cloudy 10000 ft
Dew Point 41 °F
Humidity 58%
Rainfall 0.00 in
Snow Depth Not available.
6:58 AM 5:27 PM
Waxing Crescent, 9% visible
METAR LTBR 110420Z 16017KT 9999 SCT035 BKN100 13/05 Q1007 NOSIG
Pressure 29.74 in
Visibility 6.2 miles
Clouds Scattered Clouds 3500 ft
Mostly Cloudy 10000 ft
Dew Point 41 °F
Humidity 58%
Rainfall 0.00 in
Snow Depth Not available.
6:58 AM 5:27 PM
Waxing Crescent, 9% visible
METAR LTBR 110420Z 16017KT 9999 SCT035 BKN100 13/05 Q1007 NOSIG

10-Day Weather Forecast

Almanac

Astronomy

Feb. 11, 2016 Rise Set
Actual Time
Civil Twilight
Nautical Twilight
Astronomical Twilight
Moon
Length of Visible Light
Length of Day
Tomorrow will be .
, % of the Moon is Illuminated

Today's Extremes

Country Highs Country Lows

Community

WunderPhotos

Upload Photos

1,892,014 photos uploaded!

WunderBlog® & News

Nearby

Air Quality

  Air Quality AQ Index Pollutant
Not available.

Snow Depth

Station Depth Elevation

Earthquake Activity

City Distance Mag. Time & Date
Minimum magnitude displayed is 2.5.

Coastal Water Temperatures

Place Temperature

Stations

Nearby Weather Stations

Station Location Temp. Windchill Dew Point Humidity Wind Precip. Elev Updated Type